Time;durP1;ratioP1;P1;durP2;ratioP2;P2;SDS_P1;SDS_P2;PMS_P1;PMS_P2;Temp;Humidity;BMP_temperature;BMP_pressure;BME280_temperature;BME280_humidity;BME280_pressure;Samples;Min_cycle;Max_cycle;Signal;HPM_P1;HPM_P2
2022/09/08 00:00:43;;;;;;;3.20;2.90;;;;;;;16.62;91.03;100955.75;4975754;28;20126;-76
2022/09/08 00:03:13;;;;;;;2.85;2.65;;;;;;;16.60;91.33;100953.53;4974778;28;20086;-76
2022/09/08 00:05:55;;;;;;;4.15;2.80;;;;;;;16.54;91.58;100936.63;4975334;28;20122;-76
2022/09/08 00:08:24;;;;;;;4.65;2.75;;;;;;;16.54;91.88;100936.63;4975420;28;20556;-76
2022/09/08 00:10:56;;;;;;;7.63;3.00;;;;;;;16.57;90.70;100938.38;4975177;28;20051;-76
2022/09/08 00:13:25;;;;;;;5.78;3.25;;;;;;;16.60;91.18;100937.41;4957877;28;20137;-76
2022/09/08 00:15:52;;;;;;;3.95;3.22;;;;;;;16.62;91.07;100934.25;4975245;28;20058;-76
2022/09/08 00:18:19;;;;;;;10.20;3.67;;;;;;;16.61;91.09;100930.84;4973811;28;20050;-76
2022/09/08 00:20:46;;;;;;;7.78;4.00;;;;;;;16.61;91.41;100938.91;4975315;28;20059;-76
2022/09/08 00:23:12;;;;;;;9.25;4.10;;;;;;;16.61;91.71;100940.84;4975129;28;20047;-76
2022/09/08 00:25:40;;;;;;;7.53;4.88;;;;;;;16.61;91.86;100938.91;4974946;28;20134;-76
2022/09/08 00:28:06;;;;;;;6.40;5.90;;;;;;;16.63;92.13;100941.09;4975133;28;20583;-75
2022/09/08 00:30:34;;;;;;;12.23;9.00;;;;;;;16.63;92.09;100928.41;4975064;28;20078;-75
2022/09/08 00:33:01;;;;;;;13.63;9.02;;;;;;;16.65;91.51;100930.66;4974559;28;20461;-75
2022/09/08 00:35:27;;;;;;;11.40;8.85;;;;;;;16.66;91.03;100916.72;4974798;28;20057;-75
2022/09/08 00:37:54;;;;;;;15.43;8.80;;;;;;;16.69;91.07;100917.72;4974800;28;20078;-76
2022/09/08 00:40:24;;;;;;;11.70;8.32;;;;;;;16.71;91.66;100922.63;4974909;28;20046;-75
2022/09/08 00:43:02;;;;;;;9.20;7.90;;;;;;;16.70;91.46;100931.91;4974757;28;20476;-75
2022/09/08 00:45:37;;;;;;;14.30;6.85;;;;;;;16.65;91.33;100930.66;4975010;28;20508;-75
2022/09/08 00:48:07;;;;;;;14.38;6.78;;;;;;;16.63;91.38;100925.72;4956942;28;20500;-76
2022/09/08 00:50:34;;;;;;;9.65;6.20;;;;;;;16.65;91.95;100919.91;4974620;28;20070;-75
2022/09/08 00:53:04;;;;;;;13.00;6.70;;;;;;;16.65;91.42;100919.91;4956991;28;20492;-75
2022/09/08 00:55:34;;;;;;;14.25;6.57;;;;;;;16.66;91.57;100926.75;4974716;28;20131;-75
2022/09/08 00:58:01;;;;;;;13.98;6.57;;;;;;;16.66;91.18;100919.44;4974790;28;20502;-75
2022/09/08 01:00:28;;;;;;;8.23;5.75;;;;;;;16.66;91.01;100916.72;4974650;28;20152;-75
2022/09/08 01:02:54;;;;;;;9.98;5.72;;;;;;;16.68;91.53;100918.94;4974272;28;20048;-75
2022/09/08 01:05:27;;;;;;;5.63;4.93;;;;;;;16.64;91.13;100929.19;4974351;28;20047;-76
2022/09/08 01:14:05;;;;;;;10.57;4.97;;;;;;;16.55;91.34;100921.97;4974389;28;20047;-76
2022/09/08 01:16:39;;;;;;;6.18;4.88;;;;;;;16.59;91.37;100911.75;4974064;28;20051;-75
2022/09/08 01:19:14;;;;;;;6.43;5.03;;;;;;;16.60;91.24;100907.13;4973064;28;20591;-75
2022/09/08 01:22:05;;;;;;;7.20;4.65;;;;;;;16.63;90.50;100914.97;4974493;28;20047;-76
2022/09/08 01:24:45;;;;;;;6.95;4.60;;;;;;;16.67;89.51;100898.66;4974033;28;20062;-75
2022/09/08 01:27:29;;;;;;;6.10;4.10;;;;;;;16.79;88.33;100912.94;4974480;28;20051;-76
2022/09/08 01:30:00;;;;;;;6.93;4.35;;;;;;;16.83;89.00;100908.78;4974287;28;20047;-76
2022/09/08 01:32:31;;;;;;;7.40;4.32;;;;;;;16.88;88.70;100912.72;4973923;28;20465;-75
2022/09/08 01:34:57;;;;;;;11.07;4.70;;;;;;;16.90;88.71;100910.28;4974261;28;20090;-75
2022/09/08 01:37:24;;;;;;;6.30;4.07;;;;;;;16.90;88.80;100919.09;4974011;28;20051;-75
2022/09/08 01:39:50;;;;;;;6.50;4.28;;;;;;;16.92;88.79;100916.66;4974037;28;20106;-75
2022/09/08 01:42:17;;;;;;;8.15;4.40;;;;;;;16.93;89.29;100925.47;4972893;28;20050;-75
2022/09/08 01:44:44;;;;;;;13.23;4.40;;;;;;;16.93;89.44;100928.91;4973606;28;20481;-75
2022/09/08 01:47:11;;;;;;;7.25;4.10;;;;;;;16.91;89.45;100934.03;4973743;28;20050;-75
2022/09/08 01:49:37;;;;;;;9.48;4.03;;;;;;;16.91;90.04;100925.22;4971961;28;20142;-75
2022/09/08 01:52:04;;;;;;;7.13;4.13;;;;;;;16.89;89.98;100923.00;4973454;28;20039;-75
2022/09/08 01:54:30;;;;;;;4.70;4.13;;;;;;;16.89;90.53;100928.38;4972248;28;20086;-75
2022/09/08 01:56:57;;;;;;;10.50;4.88;;;;;;;16.87;90.88;100930.81;4973876;28;20544;-75
2022/09/08 01:59:24;;;;;;;8.48;5.13;;;;;;;16.84;91.58;100915.63;4973237;28;20047;-75
2022/09/08 02:01:50;;;;;;;7.15;4.45;;;;;;;16.82;92.11;100918.06;4973582;28;20527;-77
2022/09/08 02:04:17;;;;;;;9.07;4.72;;;;;;;16.80;92.87;100915.09;4974197;28;20043;-77
2022/09/08 02:06:45;;;;;;;11.77;5.30;;;;;;;16.76;94.22;100903.88;4973684;28;20035;-76
2022/09/08 02:09:13;;;;;;;12.30;5.07;;;;;;;16.74;94.61;100905.56;4973718;28;20052;-76
2022/09/08 02:11:39;;;;;;;9.60;4.45;;;;;;;16.72;95.61;100903.34;4973533;28;20661;-75
2022/09/08 02:14:06;;;;;;;7.28;4.60;;;;;;;16.69;95.52;100896.22;4972001;28;20052;-75
2022/09/08 02:16:33;;;;;;;7.25;4.70;;;;;;;16.69;95.47;100890.13;4973311;28;20544;-76
2022/09/08 02:19:00;;;;;;;8.48;4.97;;;;;;;16.66;95.40;100894.50;4973473;28;20540;-75
2022/09/08 02:21:27;;;;;;;7.40;5.10;;;;;;;16.66;96.33;100899.88;4973533;28;20054;-76
2022/09/08 02:23:54;;;;;;;7.43;4.78;;;;;;;16.63;96.32;100901.53;4972911;28;20539;-75
2022/09/08 02:26:24;;;;;;;10.90;5.10;;;;;;;16.62;96.54;100907.38;4971864;28;20061;-76
2022/09/08 02:28:53;;;;;;;7.38;4.90;;;;;;;16.60;96.98;100902.47;4972520;28;20053;-75
2022/09/08 02:31:21;;;;;;;8.25;5.50;;;;;;;16.60;96.74;100894.41;4973452;28;20155;-75
2022/09/08 02:33:48;;;;;;;11.70;5.38;;;;;;;16.59;96.65;100887.56;4972391;28;20078;-76
2022/09/08 02:36:15;;;;;;;10.07;5.47;;;;;;;16.58;97.18;100882.66;4973427;28;20047;-75
2022/09/08 02:38:42;;;;;;;8.68;5.82;;;;;;;16.59;97.14;100886.84;4973191;28;20119;-75
2022/09/08 02:41:09;;;;;;;7.55;5.18;;;;;;;16.57;97.08;100883.88;4973214;28;20596;-76
2022/09/08 02:43:35;;;;;;;8.43;5.32;;;;;;;16.56;97.35;100885.84;4972479;28;20047;-76
2022/09/08 02:46:08;;;;;;;6.18;4.90;;;;;;;16.53;97.04;100891.44;4973135;28;20130;-75
2022/09/08 02:48:36;;;;;;;7.63;5.07;;;;;;;16.52;97.17;100876.50;4972807;28;20061;-76
2022/09/08 02:51:05;;;;;;;8.82;4.75;;;;;;;16.53;97.24;100872.63;4972931;28;20050;-76
2022/09/08 02:53:32;;;;;;;9.77;5.18;;;;;;;16.52;97.26;100873.81;4972720;28;20130;-76
2022/09/08 02:55:59;;;;;;;9.05;5.15;;;;;;;16.52;97.10;100863.06;4972671;28;20051;-76
2022/09/08 02:58:26;;;;;;;6.72;5.40;;;;;;;16.51;97.38;100850.84;4972551;28;20054;-75
2022/09/08 03:00:53;;;;;;;12.75;5.80;;;;;;;16.52;96.95;100844.28;4971384;28;20054;-75
2022/09/08 03:03:22;;;;;;;9.70;5.43;;;;;;;16.52;97.38;100844.28;4973101;28;20048;-75
2022/09/08 03:05:51;;;;;;;8.38;5.53;;;;;;;16.55;97.05;100843.31;4972774;28;20119;-75
2022/09/08 03:08:19;;;;;;;8.05;4.78;;;;;;;16.55;97.49;100837.94;4972009;28;20985;-76
2022/09/08 03:10:48;;;;;;;15.60;5.82;;;;;;;16.56;97.16;100847.47;4972866;28;20074;-77
2022/09/08 03:13:14;;;;;;;12.50;5.32;;;;;;;16.52;98.15;100820.81;4972574;28;20555;-78
2022/09/08 03:15:41;;;;;;;10.13;5.75;;;;;;;16.49;98.26;100829.84;4971138;28;20066;-77
2022/09/08 03:18:08;;;;;;;12.25;5.45;;;;;;;16.43;98.55;100836.38;4972702;28;20663;-76
2022/09/08 03:20:36;;;;;;;8.07;5.25;;;;;;;16.42;99.30;100832.97;4972675;28;20047;-76
2022/09/08 03:23:03;;;;;;;10.20;5.63;;;;;;;16.36;99.31;100815.34;4972570;28;20054;-76
2022/09/08 03:25:34;;;;;;;9.65;5.65;;;;;;;16.39;99.45;100814.41;4972305;28;20540;-76
2022/09/08 03:28:00;;;;;;;12.82;5.60;;;;;;;16.42;99.00;100811.47;4972357;28;20066;-77
2022/09/08 03:30:27;;;;;;;10.43;5.57;;;;;;;16.46;98.62;100803.91;4972633;28;20126;-76
2022/09/08 03:32:53;;;;;;;7.00;5.20;;;;;;;16.47;98.56;100807.34;4972642;28;20075;-76
2022/09/08 03:35:20;;;;;;;7.85;5.85;;;;;;;16.43;98.86;100796.06;4972750;28;20126;-76
2022/09/08 03:37:47;;;;;;;8.40;5.43;;;;;;;16.43;98.79;100785.34;4972386;28;20053;-76
2022/09/08 03:40:16;;;;;;;7.80;5.57;;;;;;;16.42;98.47;100776.53;4972737;28;20053;-77
2022/09/08 03:42:44;;;;;;;6.47;5.75;;;;;;;16.39;98.34;100782.88;4972011;28;20115;-76
2022/09/08 03:45:14;;;;;;;9.32;5.78;;;;;;;16.38;99.11;100788.75;4972297;28;20110;-77
2022/09/08 03:47:42;;;;;;;10.90;5.47;;;;;;;16.37;98.90;100785.31;4970833;28;20530;-76
2022/09/08 03:50:11;;;;;;;6.25;5.55;;;;;;;16.36;99.19;100785.78;4972146;28;20047;-77
2022/09/08 03:52:37;;;;;;;7.85;6.10;;;;;;;16.30;99.51;100775.00;4971001;28;20576;-77
2022/09/08 03:55:05;;;;;;;7.93;6.03;;;;;;;16.28;99.58;100778.16;4971743;28;20071;-77
2022/09/08 03:57:32;;;;;;;6.85;6.00;;;;;;;16.29;99.76;100776.97;4972215;28;20047;-78
2022/09/08 03:59:59;;;;;;;7.82;6.00;;;;;;;16.31;99.70;100779.16;4972241;28;20047;-78
2022/09/08 04:02:27;;;;;;;8.20;5.75;;;;;;;16.32;99.89;100808.25;4972279;28;20468;-77
2022/09/08 04:04:56;;;;;;;12.93;6.05;;;;;;;16.30;100.00;100831.41;4971974;28;20126;-77
2022/09/08 04:07:25;;;;;;;11.00;5.90;;;;;;;16.24;100.00;100836.00;4972238;28;20138;-77
2022/09/08 04:09:52;;;;;;;7.68;6.18;;;;;;;16.19;100.00;100821.31;4971616;28;20555;-78
2022/09/08 04:12:19;;;;;;;8.68;5.72;;;;;;;16.18;99.74;100813.72;4972532;28;20039;-77
2022/09/08 04:14:48;;;;;;;7.63;5.03;;;;;;;16.14;99.46;100823.94;4989830;28;20043;-77
2022/09/08 04:17:16;;;;;;;7.47;5.38;;;;;;;16.14;99.90;100838.13;4975271;28;20051;-77
2022/09/08 04:19:43;;;;;;;6.15;4.80;;;;;;;16.08;99.47;100831.22;4975211;28;20126;-77
2022/09/08 04:22:15;;;;;;;;;;;;;;;16.08;98.75;100828.53;4990483;28;20051;-77
2022/09/08 04:24:43;;;;;;;11.63;4.30;;;;;;;16.06;98.78;100834.38;4974573;28;19932;-80
2022/09/08 04:27:09;;;;;;;6.63;4.68;;;;;;;16.05;99.37;100840.22;4973991;28;20051;-80
2022/09/08 04:29:36;;;;;;;11.48;4.97;;;;;;;16.02;99.61;100839.22;4973914;28;20079;-79
2022/09/08 04:32:02;;;;;;;9.18;4.80;;;;;;;15.99;99.41;100835.53;4975046;28;20047;-79
2022/09/08 04:34:29;;;;;;;6.68;4.70;;;;;;;15.97;99.57;100831.88;4973675;28;20053;-78
2022/09/08 04:36:56;;;;;;;7.68;4.90;;;;;;;15.94;99.67;100822.81;4974856;28;21019;-78
2022/09/08 04:39:23;;;;;;;9.77;5.45;;;;;;;15.92;99.82;100811.06;4974612;28;20047;-78
2022/09/08 04:41:49;;;;;;;7.35;4.50;;;;;;;15.89;100.00;100801.28;4974984;28;20419;-78
2022/09/08 04:44:15;;;;;;;6.10;4.93;;;;;;;15.84;99.63;100797.34;4973647;28;20111;-78
2022/09/08 04:46:42;;;;;;;7.93;4.82;;;;;;;15.82;99.84;100799.00;4975018;28;20503;-78
2022/09/08 04:49:08;;;;;;;6.75;5.05;;;;;;;15.81;99.95;100803.66;4974899;28;20058;-78
2022/09/08 04:51:35;;;;;;;9.82;5.05;;;;;;;15.80;100.00;100809.50;4974831;28;20047;-78
2022/09/08 04:54:04;;;;;;;6.57;5.35;;;;;;;15.82;100.00;100818.53;4974222;28;20047;-77
2022/09/08 04:56:30;;;;;;;10.95;5.90;;;;;;;15.81;100.00;100811.69;4974526;28;20127;-78
2022/09/08 04:59:00;;;;;;;6.85;5.05;;;;;;;15.80;100.00;100802.16;4974941;28;20086;-77
2022/09/08 05:01:29;;;;;;;7.28;5.22;;;;;;;15.78;100.00;100822.66;4974709;28;20047;-77
2022/09/08 05:04:01;;;;;;;6.32;5.03;;;;;;;15.80;100.00;100817.53;4974416;28;20051;-78
2022/09/08 05:06:30;;;;;;;8.32;5.72;;;;;;;15.82;100.00;100815.84;4974959;28;20055;-77
2022/09/08 05:08:59;;;;;;;11.18;6.28;;;;;;;15.81;100.00;100813.66;4974196;28;20103;-77
2022/09/08 05:11:28;;;;;;;6.05;5.30;;;;;;;15.80;100.00;100818.28;4974086;28;20126;-77
2022/09/08 05:13:55;;;;;;;8.80;5.60;;;;;;;15.80;100.00;100810.22;4974407;28;20057;-77
2022/09/08 05:16:24;;;;;;;7.18;5.68;;;;;;;15.80;100.00;100812.91;4972711;28;20062;-77
2022/09/08 05:18:54;;;;;;;7.03;5.55;;;;;;;15.77;100.00;100813.13;4974251;28;20043;-77
2022/09/08 05:21:21;;;;;;;8.43;5.95;;;;;;;15.80;100.00;100809.50;4974182;28;20049;-77
2022/09/08 05:23:50;;;;;;;7.05;5.80;;;;;;;15.82;100.00;100815.84;4973671;28;20062;-77
2022/09/08 05:26:18;;;;;;;8.50;5.45;;;;;;;15.83;100.00;100822.69;4973312;28;20552;-77
2022/09/08 05:28:45;;;;;;;9.57;6.45;;;;;;;15.79;100.00;100832.91;4974212;28;20583;-77
2022/09/08 05:31:15;;;;;;;9.00;5.97;;;;;;;15.80;100.00;100831.69;4974178;28;20043;-77
2022/09/08 05:33:42;;;;;;;7.88;6.13;;;;;;;15.80;100.00;100842.44;4972452;28;20118;-78
2022/09/08 05:36:20;;;;;;;9.55;6.13;;;;;;;15.76;100.00;100839.22;4973937;28;20046;-77
2022/09/08 05:38:47;;;;;;;9.80;6.25;;;;;;;15.74;100.00;100840.91;4972683;28;20542;-78
2022/09/08 05:41:14;;;;;;;6.82;6.10;;;;;;;15.74;100.00;100847.00;4974169;28;20058;-78
2022/09/08 05:43:41;;;;;;;11.15;5.50;;;;;;;15.74;100.00;100844.31;4973891;28;20544;-78
2022/09/08 05:46:09;;;;;;;9.20;5.80;;;;;;;15.74;100.00;100847.00;4973818;28;20048;-78
2022/09/08 05:48:41;;;;;;;13.93;6.80;;;;;;;15.73;100.00;100847.47;4973754;28;20126;-79
2022/09/08 05:51:10;;;;;;;7.85;6.15;;;;;;;15.74;100.00;100855.06;4973367;28;20047;-79
2022/09/08 05:53:37;;;;;;;8.68;5.95;;;;;;;15.76;100.00;100854.59;4973407;28;20126;-81
2022/09/08 05:56:06;;;;;;;9.00;6.10;;;;;;;15.73;100.00;100852.84;4973293;28;20131;-79
2022/09/08 05:58:33;;;;;;;6.75;4.20;;;;;;;15.77;100.00;100848.75;4973643;28;20058;-74
2022/09/08 06:01:06;;;;;;;7.43;5.32;;;;;;;15.84;100.00;100844.91;4972445;28;20528;-76
2022/09/08 06:03:33;;;;;;;7.63;5.95;;;;;;;15.86;100.00;100845.91;4973658;28;20111;-74
2022/09/08 06:06:07;;;;;;;7.97;5.63;;;;;;;15.88;100.00;100845.44;4973095;28;20051;-77
2022/09/08 06:08:35;;;;;;;6.25;5.53;;;;;;;15.89;100.00;100846.91;4973797;28;20130;-76
2022/09/08 06:11:03;;;;;;;7.03;5.75;;;;;;;15.89;100.00;100849.59;4971972;28;20138;-77
2022/09/08 06:13:30;;;;;;;5.85;5.07;;;;;;;15.91;100.00;100855.97;4972172;28;20051;-77
2022/09/08 06:16:06;;;;;;;8.13;6.15;;;;;;;15.92;100.00;100851.34;4972786;28;20212;-76
2022/09/08 06:18:34;;;;;;;8.55;6.03;;;;;;;15.89;100.00;100853.03;4973548;28;20039;-76
2022/09/08 06:21:17;;;;;;;9.05;5.88;;;;;;;15.92;100.00;100856.72;4972704;28;20057;-76
2022/09/08 06:23:48;;;;;;;10.77;5.65;;;;;;;15.92;100.00;100852.09;4972899;28;20043;-74
2022/09/08 06:26:33;;;;;;;6.60;5.93;;;;;;;15.94;100.00;100849.66;4973577;28;20071;-75
2022/09/08 06:29:13;;;;;;;8.75;5.93;;;;;;;15.96;100.00;100846.50;4973189;28;20075;-76
2022/09/08 06:32:01;;;;;;;6.50;5.72;;;;;;;15.95;100.00;100858.44;4971521;28;20086;-77
2022/09/08 06:34:35;;;;;;;6.72;5.95;;;;;;;15.94;100.00;100859.66;4932634;28;20055;-77
2022/09/08 06:37:07;;;;;;;12.48;6.65;;;;;;;15.95;100.00;100861.13;4972213;28;20115;-76
2022/09/08 06:39:43;;;;;;;7.20;6.47;;;;;;;15.97;100.00;100856.03;4973062;28;20047;-76
2022/09/08 06:42:16;;;;;;;9.68;6.68;;;;;;;16.00;100.00;100855.06;4972913;28;20040;-76
2022/09/08 06:44:45;;;;;;;7.68;6.80;;;;;;;15.98;100.00;100854.81;4970837;28;20120;-76
2022/09/08 06:47:16;;;;;;;14.07;6.82;;;;;;;15.97;100.00;100858.72;4955141;28;20552;-76
2022/09/08 06:49:46;;;;;;;7.22;6.50;;;;;;;15.95;100.00;100861.13;4972722;28;20095;-76
2022/09/08 06:52:23;;;;;;;9.60;7.30;;;;;;;15.97;100.00;100856.03;4971371;28;20118;-77
2022/09/08 06:55:18;;;;;;;9.38;7.13;;;;;;;15.98;100.00;100860.19;4972811;28;20087;-77
2022/09/08 06:58:03;;;;;;;9.32;7.38;;;;;;;16.00;100.00;100860.44;4972663;28;20577;-76
2022/09/08 07:00:46;;;;;;;13.05;7.53;;;;;;;15.98;100.00;100866.31;4971565;28;20047;-77
2022/09/08 07:03:37;;;;;;;8.13;6.45;;;;;;;15.99;100.00;100867.75;4971241;28;20055;-77
2022/09/08 07:06:07;;;;;;;6.22;5.63;;;;;;;15.95;100.00;100869.19;4972607;28;20043;-77
2022/09/08 07:09:08;;;;;;;7.72;5.18;;;;;;;15.97;100.00;100858.72;4972234;28;20051;-76
2022/09/08 07:11:55;;;;;;;8.82;6.00;;;;;;;16.01;100.00;100849.22;4952251;28;20052;-75
2022/09/08 07:14:40;;;;;;;7.90;5.47;;;;;;;16.03;100.00;100851.44;4953197;28;20496;-76
2022/09/08 07:17:19;;;;;;;8.18;5.45;;;;;;;16.04;100.00;100844.84;4967565;28;20058;-76
2022/09/08 07:19:48;;;;;;;8.05;5.65;;;;;;;16.04;100.00;100852.91;4953010;28;20501;-76
2022/09/08 07:22:31;;;;;;;7.50;5.45;;;;;;;16.06;100.00;100850.47;4953328;28;20574;-76
2022/09/08 07:25:15;;;;;;;13.30;5.85;;;;;;;16.10;100.00;100855.66;4952912;28;20060;-76
2022/09/08 07:27:44;;;;;;;6.32;5.43;;;;;;;16.13;100.00;100860.06;4967966;28;20075;-76
2022/09/08 07:30:16;;;;;;;7.38;5.47;;;;;;;16.18;100.00;100851.31;4953051;28;20860;-77
2022/09/08 07:32:47;;;;;;;6.22;5.63;;;;;;;16.18;100.00;100851.31;4952784;28;20409;-77
2022/09/08 07:35:40;;;;;;;6.63;5.93;;;;;;;16.22;100.00;100857.97;4953031;28;20050;-76
2022/09/08 07:38:15;;;;;;;7.70;6.10;;;;;;;16.25;100.00;100850.91;4952908;28;20517;-80
2022/09/08 07:40:48;;;;;;;7.35;6.47;;;;;;;16.22;100.00;100857.97;4967505;28;20138;-78
2022/09/08 07:43:16;;;;;;;8.02;6.53;;;;;;;16.22;99.90;100857.97;4981441;28;20548;-80
2022/09/08 07:45:48;;;;;;;7.20;6.50;;;;;;;16.23;100.00;100856.00;4970871;28;20043;-79
2022/09/08 07:48:21;;;;;;;9.50;6.78;;;;;;;16.24;99.85;100852.84;4971065;28;20039;-79
2022/09/08 07:51:01;;;;;;;7.35;6.57;;;;;;;16.26;100.00;100847.00;4974598;28;20048;-79
2022/09/08 07:53:42;;;;;;;7.93;7.18;;;;;;;16.25;100.00;100846.28;4972804;28;20066;-79
2022/09/08 07:56:21;;;;;;;10.27;7.60;;;;;;;16.28;100.00;100849.97;4988953;28;20043;-79
2022/09/08 07:59:27;;;;;;;12.57;7.40;;;;;;;16.29;100.00;100846.06;4974292;28;20500;-80
2022/09/08 08:02:25;;;;;;;12.07;7.65;;;;;;;16.32;99.80;100858.53;4913041;29;20096;-80
2022/09/08 08:05:17;;;;;;;10.10;7.80;;;;;;;16.38;99.95;100862.00;4897786;29;20053;-79
2022/09/08 08:07:47;;;;;;;8.77;7.87;;;;;;;16.37;100.00;100868.59;4913590;29;20433;-80
2022/09/08 08:10:24;;;;;;;8.98;7.78;;;;;;;16.37;99.98;100868.59;4898385;29;20280;-79
2022/09/08 08:12:58;;;;;;;9.15;7.72;;;;;;;16.42;100.00;100873.25;4913497;29;20080;-80
2022/09/08 08:15:51;;;;;;;9.23;8.30;;;;;;;16.49;100.00;100869.41;4913670;29;20052;-80
2022/09/08 08:18:37;;;;;;;9.25;7.90;;;;;;;16.55;100.00;100876.31;4914068;29;20545;-80
2022/09/08 08:21:13;;;;;;;7.93;7.03;;;;;;;16.58;99.20;100885.38;4897880;29;20049;-80
2022/09/08 08:24:01;;;;;;;9.02;8.05;;;;;;;16.57;98.98;100886.56;4912440;29;20102;-78
2022/09/08 08:26:54;;;;;;;8.55;7.47;;;;;;;16.55;99.42;100884.38;4913596;29;20419;-80
2022/09/08 08:29:37;;;;;;;8.93;7.80;;;;;;;16.55;99.18;100883.63;4913215;29;20144;-80
2022/09/08 08:32:21;;;;;;;10.23;8.38;;;;;;;16.52;99.31;100888.00;4913051;29;20941;-78
2022/09/08 08:35:29;;;;;;;12.00;8.82;;;;;;;16.54;99.22;100895.59;4908921;28;20122;-79
2022/09/08 08:37:56;;;;;;;11.15;9.40;;;;;;;16.59;99.03;100900.28;4973000;28;20061;-78
2022/09/08 08:40:52;;;;;;;10.52;9.50;;;;;;;16.64;98.96;100897.66;4973443;28;20043;-78
2022/09/08 08:43:27;;;;;;;11.63;9.25;;;;;;;16.69;99.13;100884.75;4973560;28;20138;-79
2022/09/08 08:46:33;;;;;;;10.57;9.02;;;;;;;16.78;99.04;100888.00;4972815;28;20555;-79
2022/09/08 08:49:44;;;;;;;9.80;8.75;;;;;;;16.93;98.70;100891.25;4973346;28;20051;-78
2022/09/08 08:52:10;;;;;;;16.30;8.68;;;;;;;17.06;98.88;100895.50;4957416;28;20063;-78
2022/09/08 08:54:58;;;;;;;10.90;9.07;;;;;;;17.21;98.66;100887.97;4972926;28;20043;-76
2022/09/08 08:57:44;;;;;;;10.05;9.00;;;;;;;17.43;97.59;100888.09;4973133;28;20087;-78
2022/09/08 09:00:17;;;;;;;10.32;9.30;;;;;;;17.54;97.57;100892.78;4972383;28;20529;-76
2022/09/08 09:03:23;;;;;;;11.13;9.80;;;;;;;17.68;96.50;100886.50;4973149;28;20131;-76
2022/09/08 09:06:06;;;;;;;10.00;8.95;;;;;;;17.90;96.01;100883.13;4973091;28;20138;-78
2022/09/08 09:08:44;;;;;;;9.70;8.75;;;;;;;18.23;95.34;100885.88;4973265;28;20131;-77
2022/09/08 09:11:26;;;;;;;9.02;8.13;;;;;;;18.56;94.13;100887.84;4972893;28;20039;-77
2022/09/08 09:14:07;;;;;;;10.50;8.75;;;;;;;18.95;92.96;100882.41;4973161;28;20039;-81
2022/09/08 09:17:02;;;;;;;12.02;10.18;;;;;;;19.23;90.76;100887.00;4971339;28;20492;-82
2022/09/08 09:19:58;;;;;;;11.00;9.98;;;;;;;19.41;88.24;100883.03;4971953;28;20362;-79
2022/09/08 09:22:35;;;;;;;11.02;9.93;;;;;;;19.33;86.23;100891.63;4972716;28;20134;-78
2022/09/08 09:25:17;;;;;;;11.38;10.38;;;;;;;19.41;87.50;100889.16;4970705;28;20134;-78
2022/09/08 09:28:00;;;;;;;11.23;10.13;;;;;;;19.74;86.52;100885.59;4972525;28;20051;-78
2022/09/08 09:30:37;;;;;;;11.98;10.05;;;;;;;20.01;84.30;100878.53;4970754;28;20047;-78
2022/09/08 09:33:46;;;;;;;8.75;8.05;;;;;;;19.97;84.26;100880.78;4972613;28;20050;-78
2022/09/08 09:36:19;;;;;;;10.00;7.13;;;;;;;19.84;81.02;100883.31;4972590;28;20047;-78
2022/09/08 09:38:58;;;;;;;6.95;6.28;;;;;;;19.81;82.33;100876.22;4972953;28;20061;-85
2022/09/08 09:41:51;;;;;;;7.07;6.32;;;;;;;20.02;82.14;100877.31;4973565;28;20086;-86
2022/09/08 09:44:36;;;;;;;6.22;5.18;;;;;;;20.23;80.36;100881.09;4975593;28;20090;-84
2022/09/08 09:47:21;;;;;;;5.22;4.82;;;;;;;20.59;81.30;100878.38;4972094;28;20520;-84
2022/09/08 09:50:17;;;;;;;4.80;4.13;;;;;;;20.79;79.49;100875.25;4973030;28;20154;-82
2022/09/08 09:52:55;;;;;;;5.72;4.22;;;;;;;20.49;77.30;100877.22;4973555;28;20543;-82
2022/09/08 09:56:00;;;;;;;4.10;3.78;;;;;;;20.11;76.47;100870.84;4973420;28;20892;-82
2022/09/08 09:59:16;;;;;;;4.70;3.88;;;;;;;20.06;78.39;100872.38;4972396;28;20130;-81
2022/09/08 10:02:05;;;;;;;3.28;2.92;;;;;;;20.29;77.28;100862.88;4971145;28;20436;-82
2022/09/08 10:05:12;;;;;;;2.60;2.40;;;;;;;20.54;77.73;100869.06;4972146;28;20044;-82
2022/09/08 10:08:08;;;;;;;4.18;2.40;;;;;;;20.89;75.51;100862.09;4942071;28;20168;-82
2022/09/08 10:10:53;;;;;;;3.88;2.45;;;;;;;21.14;75.50;100862.81;4971714;28;20122;-82
2022/09/08 10:13:38;;;;;;;3.65;2.63;;;;;;;20.71;74.73;100868.91;4970426;28;20047;-82
2022/09/08 10:16:51;;;;;;;3.13;2.80;;;;;;;20.34;76.57;100866.75;4972278;28;20158;-82
2022/09/08 10:19:36;;;;;;;5.72;3.38;;;;;;;20.36;75.02;100869.69;4972415;28;20130;-84
2022/09/08 10:22:39;;;;;;;3.45;3.20;;;;;;;20.64;76.01;100872.19;4971829;28;20586;-82
2022/09/08 10:25:39;;;;;;;3.47;3.17;;;;;;;20.56;74.94;100866.59;4971216;28;20153;-82
2022/09/08 10:28:33;;;;;;;5.05;3.65;;;;;;;20.40;75.60;100859.34;4970714;28;20043;-80
2022/09/08 10:31:19;;;;;;;5.32;3.33;;;;;;;20.39;75.50;100865.28;4973637;28;20051;-81
2022/09/08 10:34:10;;;;;;;8.18;3.78;;;;;;;20.31;75.73;100863.09;4973419;28;20102;-78
2022/09/08 10:36:58;;;;;;;5.10;4.60;;;;;;;20.18;75.59;100862.94;4972610;28;20090;-80
2022/09/08 10:40:04;;;;;;;4.28;3.80;;;;;;;20.75;76.77;100869.38;4973197;28;20122;-80
2022/09/08 10:42:42;;;;;;;6.45;4.35;;;;;;;21.16;73.90;100863.75;4972761;28;20062;-79
2022/09/08 10:45:38;;;;;;;6.75;4.10;;;;;;;21.34;73.28;100861.59;4972826;28;20118;-79
2022/09/08 10:48:19;;;;;;;5.30;4.90;;;;;;;21.39;69.95;100866.22;4987476;28;20086;-78
2022/09/08 10:50:53;;;;;;;6.18;5.60;;;;;;;21.02;71.33;100858.75;4972193;28;20493;-78
2022/09/08 10:53:58;;;;;;;5.03;4.65;;;;;;;20.90;72.06;100850.75;4971837;28;20103;-77
2022/09/08 10:56:27;;;;;;;7.45;5.60;;;;;;;21.02;72.35;100856.06;4964219;28;20524;-77
2022/09/08 10:59:15;;;;;;;5.43;5.03;;;;;;;20.94;71.47;100856.63;4971216;28;20436;-78
2022/09/08 11:02:08;;;;;;;5.53;5.03;;;;;;;20.82;71.15;100854.53;4971566;28;20047;-77
2022/09/08 11:04:41;;;;;;;5.50;4.95;;;;;;;20.51;72.27;100861.22;4972901;28;20057;-77
2022/09/08 11:07:54;;;;;;;6.68;5.07;;;;;;;20.34;72.85;100866.75;4955218;28;20055;-77
2022/09/08 11:10:55;;;;;;;5.28;4.88;;;;;;;20.07;73.89;100868.44;4972392;28;20541;-76
2022/09/08 11:13:52;;;;;;;5.03;4.60;;;;;;;20.03;72.98;100864.53;4954780;28;20062;-80
2022/09/08 11:16:44;;;;;;;5.43;4.30;;;;;;;20.02;73.61;100869.19;4972281;28;20091;-76
2022/09/08 11:19:33;;;;;;;5.57;4.47;;;;;;;20.00;73.51;100871.66;4972558;28;20058;-76
2022/09/08 11:22:37;;;;;;;6.28;4.72;;;;;;;20.30;74.02;100866.31;4972692;28;20512;-76
2022/09/08 11:25:32;;;;;;;7.55;5.65;;;;;;;20.70;72.54;100875.56;4975356;28;20138;-75
2022/09/08 11:28:14;;;;;;;6.75;4.28;;;;;;;20.93;71.78;100874.09;4896689;29;20136;-75
2022/09/08 11:30:53;;;;;;;7.18;3.58;;;;;;;21.15;70.33;100859.59;4897020;29;20053;-76
2022/09/08 11:33:51;;;;;;;8.00;3.83;;;;;;;21.33;69.88;100870.97;4897198;29;20068;-76
2022/09/08 11:36:45;;;;;;;4.30;3.53;;;;;;;21.09;68.66;100860.91;4897379;29;20057;-77
2022/09/08 11:39:24;;;;;;;3.47;3.17;;;;;;;21.19;68.44;100853.91;4896252;29;20096;-78
2022/09/08 11:42:17;;;;;;;5.97;3.25;;;;;;;21.20;67.74;100849.91;4897128;29;20057;-78
2022/09/08 11:45:24;;;;;;;5.32;2.80;;;;;;;20.80;66.30;100851.59;4896880;29;20525;-78
2022/09/08 11:48:02;;;;;;;3.20;2.90;;;;;;;20.78;68.92;100848.69;4896068;29;20148;-82
2022/09/08 11:50:37;;;;;;;5.72;3.35;;;;;;;20.95;68.10;100849.22;4896763;29;20136;-79
2022/09/08 11:53:46;;;;;;;9.57;3.00;;;;;;;21.29;67.42;100847.63;4881059;29;20053;-79
2022/09/08 11:57:04;;;;;;;6.18;2.63;;;;;;;21.32;66.22;100845.13;4896077;29;20049;-81
2022/09/08 12:00:01;;;;;;;4.95;2.78;;;;;;;21.58;66.60;100842.59;4861030;29;20582;-78
2022/09/08 12:03:05;;;;;;;5.55;2.60;;;;;;;21.48;65.94;100841.50;4894466;29;20140;-79
2022/09/08 12:05:59;;;;;;;8.63;3.00;;;;;;;21.20;66.04;100844.50;4952970;28;20086;-78
2022/09/08 12:09:02;;;;;;;9.00;2.65;;;;;;;21.36;66.37;100840.16;4974568;28;20054;-78
2022/09/08 12:12:05;;;;;;;12.75;2.97;;;;;;;21.49;62.88;100837.53;4975357;28;20055;-79